sensor_id;sensor_type;location;lat;lon;timestamp;P1;P4;P2;P0;N10;N4;N25;N1;N05;TS
84733;SPS30;74957;48.082;17.260;2024-01-15T00:00:53;55.652;;49.469;42.536;;;;;;
84733;SPS30;74957;48.082;17.260;2024-01-15T00:05:54;51.206;;45.517;39.624;;;;;;
84733;SPS30;74957;48.082;17.260;2024-01-15T00:10:51;52.663;;46.812;41.959;;;;;;
84733;SPS30;74957;48.082;17.260;2024-01-15T00:15:50;52.236;;46.432;38.806;;;;;;
84733;SPS30;74957;48.082;17.260;2024-01-15T00:21:00;50.512;;44.9;37.794;;;;;;
84733;SPS30;74957;48.082;17.260;2024-01-15T00:25:54;46.64;;41.458;36.952;;;;;;
84733;SPS30;74957;48.082;17.260;2024-01-15T00:30:57;57.322;;50.953;43.5;;;;;;
84733;SPS30;74957;48.082;17.260;2024-01-15T00:35:56;49.651;;44.135;36.856;;;;;;
84733;SPS30;74957;48.082;17.260;2024-01-15T00:40:52;47.929;;42.604;35.845;;;;;;
84733;SPS30;74957;48.082;17.260;2024-01-15T00:45:54;57.051;;50.712;44.993;;;;;;
84733;SPS30;74957;48.082;17.260;2024-01-15T00:50:59;56.916;;50.592;41.406;;;;;;
84733;SPS30;74957;48.082;17.260;2024-01-15T00:55:54;51.773;;46.021;39.262;;;;;;
84733;SPS30;74957;48.082;17.260;2024-01-15T01:00:57;47.111;;41.877;35.291;;;;;;
84733;SPS30;74957;48.082;17.260;2024-01-15T01:05:52;50.236;;44.655;38.589;;;;;;
84733;SPS30;74957;48.082;17.260;2024-01-15T01:10:53;52.29;;46.48;40.587;;;;;;
84733;SPS30;74957;48.082;17.260;2024-01-15T01:15:53;49.6;;42.777;37.578;;;;;;
84733;SPS30;74957;48.082;17.260;2024-01-15T01:20:50;57.759;;51.342;41.983;;;;;;
84733;SPS30;74957;48.082;17.260;2024-01-15T01:25:52;61.394;;54.573;46.774;;;;;;
84733;SPS30;74957;48.082;17.260;2024-01-15T01:30:55;51.716;;45.97;38.517;;;;;;
84733;SPS30;74957;48.082;17.260;2024-01-15T01:35:52;55.81;;49.609;42.85;;;;;;
84733;SPS30;74957;48.082;17.260;2024-01-15T01:40:52;57.066;;50.726;42.753;;;;;;
84733;SPS30;74957;48.082;17.260;2024-01-15T01:45:58;54.813;;48.723;40.924;;;;;;
84733;SPS30;74957;48.082;17.260;2024-01-15T01:50:52;57.678;;51.27;45.377;;;;;;
84733;SPS30;74957;48.082;17.260;2024-01-15T01:55:50;48.065;;42.725;36.832;;;;;;
84733;SPS30;74957;48.082;17.260;2024-01-15T02:00:51;54.03;;47.207;41.141;;;;;;
84733;SPS30;74957;48.082;17.260;2024-01-15T02:05:51;55.009;;48.897;41.791;;;;;;
84733;SPS30;74957;48.082;17.260;2024-01-15T02:10:49;59.964;;53.302;44.463;;;;;;
84733;SPS30;74957;48.082;17.260;2024-01-15T02:15:53;62.608;;55.652;47.159;;;;;;
84733;SPS30;74957;48.082;17.260;2024-01-15T02:20:52;59.726;;53.09;42.344;;;;;;
84733;SPS30;74957;48.082;17.260;2024-01-15T02:25:50;69.492;;61.771;49.638;;;;;;
84733;SPS30;74957;48.082;17.260;2024-01-15T02:30:53;57.438;;50.615;42.296;;;;;;
84733;SPS30;74957;48.082;17.260;2024-01-15T02:35:55;65.597;;58.309;49.47;;;;;;
84733;SPS30;74957;48.082;17.260;2024-01-15T02:40:56;64.928;;56.74;47.207;;;;;;
84733;SPS30;74957;48.082;17.260;2024-01-15T02:45:52;63.837;;56.744;47.905;;;;;;
84733;SPS30;74957;48.082;17.260;2024-01-15T02:50:50;62.57;;55.618;49.205;;;;;;
84733;SPS30;74957;48.082;17.260;2024-01-15T02:55:52;54.466;;48.415;43.042;;;;;;
84733;SPS30;74957;48.082;17.260;2024-01-15T03:00:52;63.469;;56.417;48.964;;;;;;
84733;SPS30;74957;48.082;17.260;2024-01-15T03:05:51;65.12;;57.885;48.699;;;;;;
84733;SPS30;74957;48.082;17.260;2024-01-15T03:10:51;72.445;;59.936;50.577;;;;;;
84733;SPS30;74957;48.082;17.260;2024-01-15T03:15:50;59.731;;52.908;47.015;;;;;;
84733;SPS30;74957;48.082;17.260;2024-01-15T03:20:53;59.916;;53.259;45.113;;;;;;
84733;SPS30;74957;48.082;17.260;2024-01-15T03:25:52;65.191;;57.948;50.842;;;;;;
84733;SPS30;74957;48.082;17.260;2024-01-15T03:30:52;60.815;;54.058;46.605;;;;;;
84733;SPS30;74957;48.082;17.260;2024-01-15T03:35:54;62.602;;55.647;48.273;;;;;;
84733;SPS30;74957;48.082;17.260;2024-01-15T03:40:54;57.326;;50.957;45.064;;;;;;
84733;SPS30;74957;48.082;17.260;2024-01-15T03:45:50;59.043;;52.483;46.244;;;;;;
84733;SPS30;74957;48.082;17.260;2024-01-15T03:50:54;68.935;;61.276;52.263;;;;;;
84733;SPS30;74957;48.082;17.260;2024-01-15T03:55:55;56.904;;50.582;43.476;;;;;;
84733;SPS30;74957;48.082;17.260;2024-01-15T04:00:53;61.481;;54.65;47.544;;;;;;
84733;SPS30;74957;48.082;17.260;2024-01-15T04:05:51;62.591;;55.637;47.664;;;;;;
84733;SPS30;74957;48.082;17.260;2024-01-15T04:10:50;65.678;;58.381;48.675;;;;;;
84733;SPS30;74957;48.082;17.260;2024-01-15T04:15:51;65.484;;58.208;49.542;;;;;;
84733;SPS30;74957;48.082;17.260;2024-01-15T04:20:49;61.941;;55.059;46.22;;;;;;
84733;SPS30;74957;48.082;17.260;2024-01-15T04:25:50;54.992;;48.882;40.563;;;;;;
84733;SPS30;74957;48.082;17.260;2024-01-15T04:30:50;61.866;;54.992;46.846;;;;;;
84733;SPS30;74957;48.082;17.260;2024-01-15T04:35:52;38.25;;34.0;29.321;;;;;;
84733;SPS30;74957;48.082;17.260;2024-01-15T04:40:52;21.289;;18.924;15.285;;;;;;
84733;SPS30;74957;48.082;17.260;2024-01-15T04:45:54;15.777;;14.024;12.638;;;;;;
84733;SPS30;74957;48.082;17.260;2024-01-15T04:50:51;13.208;;11.741;10.182;;;;;;
84733;SPS30;74957;48.082;17.260;2024-01-15T04:55:51;18.132;;16.118;14.732;;;;;;
84733;SPS30;74957;48.082;17.260;2024-01-15T05:00:52;13.431;;11.939;11.073;;;;;;
84733;SPS30;74957;48.082;17.260;2024-01-15T05:05:52;12.033;;10.696;8.617;;;;;;
84733;SPS30;74957;48.082;17.260;2024-01-15T05:10:51;13.485;;11.987;10.254;;;;;;
84733;SPS30;74957;48.082;17.260;2024-01-15T05:15:52;15.716;;13.97;11.024;;;;;;
84733;SPS30;74957;48.082;17.260;2024-01-15T05:20:51;16.799;;14.933;12.854;;;;;;
84733;SPS30;74957;48.082;17.260;2024-01-15T05:25:57;18.261;;11.438;9.532;;;;;;
84733;SPS30;74957;48.082;17.260;2024-01-15T05:30:51;12.526;;11.135;9.749;;;;;;
84733;SPS30;74957;48.082;17.260;2024-01-15T05:35:52;14.98;;13.316;11.41;;;;;;
84733;SPS30;74957;48.082;17.260;2024-01-15T05:40:51;17.845;;15.863;12.397;;;;;;
84733;SPS30;74957;48.082;17.260;2024-01-15T05:45:51;14.502;;12.891;9.772;;;;;;
84733;SPS30;74957;48.082;17.260;2024-01-15T05:50:53;10.787;;9.589;7.51;;;;;;
84733;SPS30;74957;48.082;17.260;2024-01-15T05:55:50;13.268;;11.794;10.928;;;;;;
84733;SPS30;74957;48.082;17.260;2024-01-15T06:00:53;12.174;;10.822;9.436;;;;;;
84733;SPS30;74957;48.082;17.260;2024-01-15T06:05:51;16.659;;14.808;12.035;;;;;;
84733;SPS30;74957;48.082;17.260;2024-01-15T06:10:51;10.239;;9.102;8.063;;;;;;
84733;SPS30;74957;48.082;17.260;2024-01-15T06:15:54;13.198;;11.732;10.519;;;;;;
84733;SPS30;74957;48.082;17.260;2024-01-15T06:20:57;13.041;;11.592;10.206;;;;;;
84733;SPS30;74957;48.082;17.260;2024-01-15T06:25:54;12.478;;11.092;10.399;;;;;;
84733;SPS30;74957;48.082;17.260;2024-01-15T06:30:55;15.548;;13.821;12.782;;;;;;
84733;SPS30;74957;48.082;17.260;2024-01-15T06:35:53;15.982;;14.207;12.301;;;;;;
84733;SPS30;74957;48.082;17.260;2024-01-15T06:40:59;12.201;;10.846;9.46;;;;;;
84733;SPS30;74957;48.082;17.260;2024-01-15T06:45:56;13.16;;11.698;10.832;;;;;;
84733;SPS30;74957;48.082;17.260;2024-01-15T06:50:54;12.867;;11.438;10.399;;;;;;
84733;SPS30;74957;48.082;17.260;2024-01-15T06:55:55;11.822;;10.509;8.256;;;;;;
84733;SPS30;74957;48.082;17.260;2024-01-15T07:00:55;10.283;;9.141;7.582;;;;;;
84733;SPS30;74957;48.082;17.260;2024-01-15T07:05:54;10.045;;8.929;8.063;;;;;;
84733;SPS30;74957;48.082;17.260;2024-01-15T07:10:53;11.675;;10.378;8.472;;;;;;
84733;SPS30;74957;48.082;17.260;2024-01-15T07:15:55;8.578;;7.625;6.066;;;;;;
84733;SPS30;74957;48.082;17.260;2024-01-15T07:20:57;11.946;;10.619;9.58;;;;;;
84733;SPS30;74957;48.082;17.260;2024-01-15T07:25:54;9.823;;8.732;8.039;;;;;;
84733;SPS30;74957;48.082;17.260;2024-01-15T07:30:56;17.927;;9.739;7.486;;;;;;
84733;SPS30;74957;48.082;17.260;2024-01-15T07:36:00;10.987;;9.767;8.208;;;;;;
84733;SPS30;74957;48.082;17.260;2024-01-15T07:40:54;9.878;;8.781;6.355;;;;;;
84733;SPS30;74957;48.082;17.260;2024-01-15T07:45:56;12.071;;10.73;9.171;;;;;;
84733;SPS30;74957;48.082;17.260;2024-01-15T07:50:57;12.186;;10.832;9.099;;;;;;
84733;SPS30;74957;48.082;17.260;2024-01-15T07:55:56;13.961;;12.41;11.024;;;;;;
84733;SPS30;74957;48.082;17.260;2024-01-15T08:00:57;11.291;;10.037;9.171;;;;;;
84733;SPS30;74957;48.082;17.260;2024-01-15T08:05:54;11.985;;10.654;9.268;;;;;;
84733;SPS30;74957;48.082;17.260;2024-01-15T08:10:53;10.971;;9.752;8.713;;;;;;
84733;SPS30;74957;48.082;17.260;2024-01-15T08:15:56;10.203;;9.07;8.377;;;;;;
84733;SPS30;74957;48.082;17.260;2024-01-15T08:20:55;10.689;;9.502;7.943;;;;;;
84733;SPS30;74957;48.082;17.260;2024-01-15T08:25:56;9.704;;8.626;8.28;;;;;;
84733;SPS30;74957;48.082;17.260;2024-01-15T08:31:00;6.676;;5.935;5.416;;;;;;
84733;SPS30;74957;48.082;17.260;2024-01-15T08:35:56;11.584;;10.297;9.604;;;;;;
84733;SPS30;74957;48.082;17.260;2024-01-15T08:40:55;9.725;;8.645;6.739;;;;;;
84733;SPS30;74957;48.082;17.260;2024-01-15T08:45:57;14.351;;12.757;11.024;;;;;;
84733;SPS30;74957;48.082;17.260;2024-01-15T08:50:59;9.586;;8.521;7.389;;;;;;
84733;SPS30;74957;48.082;17.260;2024-01-15T08:55:55;8.578;;7.625;6.066;;;;;;
84733;SPS30;74957;48.082;17.260;2024-01-15T09:00:58;11.216;;9.97;8.064;;;;;;
84733;SPS30;74957;48.082;17.260;2024-01-15T09:05:58;7.803;;6.936;5.03;;;;;;
84733;SPS30;74957;48.082;17.260;2024-01-15T09:10:57;9.303;;8.27;6.884;;;;;;
84733;SPS30;74957;48.082;17.260;2024-01-15T09:15:57;10.083;;8.963;7.75;;;;;;
84733;SPS30;74957;48.082;17.260;2024-01-15T09:20:58;10.425;;9.267;8.401;;;;;;
84733;SPS30;74957;48.082;17.260;2024-01-15T09:25:56;7.479;;6.648;6.475;;;;;;
84733;SPS30;74957;48.082;17.260;2024-01-15T09:30:55;11.058;;9.83;8.617;;;;;;
84733;SPS30;74957;48.082;17.260;2024-01-15T09:36:01;13.354;;11.871;10.832;;;;;;
84733;SPS30;74957;48.082;17.260;2024-01-15T09:40:57;11.399;;10.133;9.267;;;;;;
84733;SPS30;74957;48.082;17.260;2024-01-15T09:45:54;16.421;;9.598;8.039;;;;;;
84733;SPS30;74957;48.082;17.260;2024-01-15T09:51:00;12.267;;10.904;9.171;;;;;;
84733;SPS30;74957;48.082;17.260;2024-01-15T09:55:57;7.04;;6.258;6.258;;;;;;
84733;SPS30;74957;48.082;17.260;2024-01-15T10:01:02;8.176;;7.268;6.402;;;;;;
84733;SPS30;74957;48.082;17.260;2024-01-15T10:05:57;5.935;;5.276;5.103;;;;;;
84733;SPS30;74957;48.082;17.260;2024-01-15T10:10:55;7.218;;6.416;5.897;;;;;;
84733;SPS30;74957;48.082;17.260;2024-01-15T10:15:57;5.968;;5.305;4.092;;;;;;
84733;SPS30;74957;48.082;17.260;2024-01-15T10:20:56;8.838;;7.856;6.643;;;;;;
84733;SPS30;74957;48.082;17.260;2024-01-15T10:26:04;8.204;;7.293;6.427;;;;;;
84733;SPS30;74957;48.082;17.260;2024-01-15T10:31:03;6.486;;5.766;5.247;;;;;;
84733;SPS30;74957;48.082;17.260;2024-01-15T10:35:58;5.403;;4.803;4.284;;;;;;
84733;SPS30;74957;48.082;17.260;2024-01-15T10:40:57;8.615;;7.658;6.619;;;;;;
84733;SPS30;74957;48.082;17.260;2024-01-15T10:45:56;6.151;;5.468;5.295;;;;;;
84733;SPS30;74957;48.082;17.260;2024-01-15T10:50:58;5.458;;4.852;4.333;;;;;;
84733;SPS30;74957;48.082;17.260;2024-01-15T10:56:01;5.789;;5.146;4.453;;;;;;
84733;SPS30;74957;48.082;17.260;2024-01-15T11:00:57;8.94;;7.947;6.908;;;;;;
84733;SPS30;74957;48.082;17.260;2024-01-15T11:05:57;5.349;;4.755;4.236;;;;;;
84733;SPS30;74957;48.082;17.260;2024-01-15T11:10:56;6.265;;5.569;5.223;;;;;;
84733;SPS30;74957;48.082;17.260;2024-01-15T11:15:57;4.201;;3.735;3.562;;;;;;
84733;SPS30;74957;48.082;17.260;2024-01-15T11:21:29;5.316;;4.726;4.38;;;;;;
84733;SPS30;74957;48.082;17.260;2024-01-15T11:25:57;6.986;;6.21;5.344;;;;;;
84733;SPS30;74957;48.082;17.260;2024-01-15T11:30:59;4.857;;4.318;3.972;;;;;;
84733;SPS30;74957;48.082;17.260;2024-01-15T11:35:56;7.353;;6.536;5.15;;;;;;
84733;SPS30;74957;48.082;17.260;2024-01-15T11:40:54;6.53;;5.805;5.632;;;;;;
84733;SPS30;74957;48.082;17.260;2024-01-15T11:45:58;7.202;;6.402;5.536;;;;;;
84733;SPS30;74957;48.082;17.260;2024-01-15T11:50:55;2.576;;2.29;2.117;;;;;;
84733;SPS30;74957;48.082;17.260;2024-01-15T11:55:59;5.523;;4.91;3.177;;;;;;
84733;SPS30;74957;48.082;17.260;2024-01-15T12:00:56;5.983;;5.319;4.453;;;;;;
84733;SPS30;74957;48.082;17.260;2024-01-15T12:05:58;5.955;;5.294;4.428;;;;;;
84733;SPS30;74957;48.082;17.260;2024-01-15T12:10:57;5.955;;5.294;4.428;;;;;;
84733;SPS30;74957;48.082;17.260;2024-01-15T12:15:54;11.805;;10.494;8.761;;;;;;
84733;SPS30;74957;48.082;17.260;2024-01-15T12:20:54;4.781;;4.25;3.731;;;;;;
84733;SPS30;74957;48.082;17.260;2024-01-15T12:25:54;6.459;;5.742;5.223;;;;;;
84733;SPS30;74957;48.082;17.260;2024-01-15T12:31:01;5.289;;4.702;4.356;;;;;;
84733;SPS30;74957;48.082;17.260;2024-01-15T12:35:55;5.967;;5.304;4.958;;;;;;
84733;SPS30;74957;48.082;17.260;2024-01-15T12:40:54;5.383;;4.785;4.092;;;;;;
84733;SPS30;74957;48.082;17.260;2024-01-15T12:45:57;5.772;;5.131;4.092;;;;;;
84733;SPS30;74957;48.082;17.260;2024-01-15T12:50:55;4.635;;4.12;3.947;;;;;;
84733;SPS30;74957;48.082;17.260;2024-01-15T12:55:55;6.215;;5.525;5.006;;;;;;
84733;SPS30;74957;48.082;17.260;2024-01-15T13:00:55;4.233;;3.763;3.417;;;;;;
84733;SPS30;74957;48.082;17.260;2024-01-15T13:05:54;6.752;;6.002;5.656;;;;;;
84733;SPS30;74957;48.082;17.260;2024-01-15T13:10:54;9.915;;8.814;6.908;;;;;;
84733;SPS30;74957;48.082;17.260;2024-01-15T13:16:00;4.933;;4.385;4.212;;;;;;
84733;SPS30;74957;48.082;17.260;2024-01-15T13:20:55;6.167;;5.482;4.789;;;;;;
84733;SPS30;74957;48.082;17.260;2024-01-15T13:25:59;7.9;;7.023;6.33;;;;;;
84733;SPS30;74957;48.082;17.260;2024-01-15T13:30:54;6.394;;5.684;4.645;;;;;;
84733;SPS30;74957;48.082;17.260;2024-01-15T13:35:55;9.151;;8.135;7.269;;;;;;
84733;SPS30;74957;48.082;17.260;2024-01-15T13:41:00;7.7;;6.845;6.499;;;;;;
84733;SPS30;74957;48.082;17.260;2024-01-15T13:45:56;6.904;;6.137;5.271;;;;;;
84733;SPS30;74957;48.082;17.260;2024-01-15T13:50:59;9.19;;8.169;7.823;;;;;;
84733;SPS30;74957;48.082;17.260;2024-01-15T13:55:56;11.53;;10.287;8.81;;;;;;
84733;SPS30;74957;48.082;17.260;2024-01-15T14:00:57;6.27;;5.574;5.055;;;;;;
84733;SPS30;74957;48.082;17.260;2024-01-15T14:05:56;8.48;;7.538;6.499;;;;;;
84733;SPS30;74957;48.082;17.260;2024-01-15T14:10:56;7.717;;6.86;5.994;;;;;;
84733;SPS30;74957;48.082;17.260;2024-01-15T14:15:59;6.135;;5.454;4.935;;;;;;
84733;SPS30;74957;48.082;17.260;2024-01-15T14:20:54;6.255;;5.56;5.56;;;;;;
84733;SPS30;74957;48.082;17.260;2024-01-15T14:26:01;5.062;;4.5;4.5;;;;;;
84733;SPS30;74957;48.082;17.260;2024-01-15T14:30:55;6.687;;5.944;5.078;;;;;;
84733;SPS30;74957;48.082;17.260;2024-01-15T14:36:00;5.55;;4.934;4.934;;;;;;
84733;SPS30;74957;48.082;17.260;2024-01-15T14:40:59;9.763;;8.679;7.293;;;;;;
84733;SPS30;74957;48.082;17.260;2024-01-15T14:45:56;12.039;;10.702;9.316;;;;;;
84733;SPS30;74957;48.082;17.260;2024-01-15T14:50:53;7.608;;6.763;5.897;;;;;;
84733;SPS30;74957;48.082;17.260;2024-01-15T14:55:59;5.728;;5.092;4.573;;;;;;
84733;SPS30;74957;48.082;17.260;2024-01-15T15:00:56;6.076;;5.401;5.055;;;;;;
84733;SPS30;74957;48.082;17.260;2024-01-15T15:05:55;5.248;;4.665;3.972;;;;;;
84733;SPS30;74957;48.082;17.260;2024-01-15T15:10:58;9.765;;8.68;7.294;;;;;;
84733;SPS30;74957;48.082;17.260;2024-01-15T15:15:55;6.032;;5.362;4.669;;;;;;
84733;SPS30;74957;48.082;17.260;2024-01-15T15:20:54;11.521;;4.698;4.525;;;;;;
84733;SPS30;74957;48.082;17.260;2024-01-15T15:25:53;3.908;;3.474;3.128;;;;;;
84733;SPS30;74957;48.082;17.260;2024-01-15T15:30:55;6.53;;5.805;5.632;;;;;;
84733;SPS30;74957;48.082;17.260;2024-01-15T15:35:55;4.586;;4.077;3.731;;;;;;
84733;SPS30;74957;48.082;17.260;2024-01-15T15:40:50;4.639;;4.124;3.778;;;;;;
84733;SPS30;74957;48.082;17.260;2024-01-15T15:45:50;5.451;;4.846;4.5;;;;;;
84733;SPS30;74957;48.082;17.260;2024-01-15T15:50:51;4.44;;3.947;3.947;;;;;;
84733;SPS30;74957;48.082;17.260;2024-01-15T15:55:56;4.25;;3.778;3.778;;;;;;
84733;SPS30;74957;48.082;17.260;2024-01-15T16:00:52;7.435;;6.609;5.223;;;;;;
84733;SPS30;74957;48.082;17.260;2024-01-15T16:05:53;5.176;;4.601;4.428;;;;;;
84733;SPS30;74957;48.082;17.260;2024-01-15T16:10:52;4.689;;4.168;3.995;;;;;;
84733;SPS30;74957;48.082;17.260;2024-01-15T16:15:50;5.94;;5.28;4.934;;;;;;
84733;SPS30;74957;48.082;17.260;2024-01-15T16:20:50;2.712;;2.411;2.238;;;;;;
84733;SPS30;74957;48.082;17.260;2024-01-15T16:25:53;5.924;;5.266;4.573;;;;;;
84733;SPS30;74957;48.082;17.260;2024-01-15T16:30:52;5.231;;4.65;4.477;;;;;;
84733;SPS30;74957;48.082;17.260;2024-01-15T16:35:51;8.457;;7.518;7.172;;;;;;
84733;SPS30;74957;48.082;17.260;2024-01-15T16:40:51;8.512;;7.567;7.221;;;;;;
84733;SPS30;74957;48.082;17.260;2024-01-15T16:45:55;6.422;;5.709;5.536;;;;;;
84733;SPS30;74957;48.082;17.260;2024-01-15T16:50:53;3.709;;3.297;3.297;;;;;;
84733;SPS30;74957;48.082;17.260;2024-01-15T16:55:54;6.021;;5.352;4.139;;;;;;
84733;SPS30;74957;48.082;17.260;2024-01-15T17:00:50;6.492;;5.771;5.078;;;;;;
84733;SPS30;74957;48.082;17.260;2024-01-15T17:05:53;7.429;;6.604;6.258;;;;;;
84733;SPS30;74957;48.082;17.260;2024-01-15T17:10:52;8.517;;7.571;7.052;;;;;;
84733;SPS30;74957;48.082;17.260;2024-01-15T17:15:51;7.365;;6.547;6.547;;;;;;
84733;SPS30;74957;48.082;17.260;2024-01-15T17:20:54;9.059;;8.053;7.534;;;;;;
84733;SPS30;74957;48.082;17.260;2024-01-15T17:25:53;12.992;;11.549;9.99;;;;;;
84733;SPS30;74957;48.082;17.260;2024-01-15T17:30:54;12.163;;10.812;8.906;;;;;;
84733;SPS30;74957;48.082;17.260;2024-01-15T17:35:54;8.019;;7.128;6.089;;;;;;
84733;SPS30;74957;48.082;17.260;2024-01-15T17:40:55;6.931;;6.161;5.295;;;;;;
84733;SPS30;74957;48.082;17.260;2024-01-15T17:45:51;6.394;;5.684;4.645;;;;;;
84733;SPS30;74957;48.082;17.260;2024-01-15T17:50:51;5.122;;4.553;4.38;;;;;;
84733;SPS30;74957;48.082;17.260;2024-01-15T17:55:52;4.759;;4.231;3.538;;;;;;
84733;SPS30;74957;48.082;17.260;2024-01-15T18:00:55;6.746;;5.997;4.958;;;;;;
84733;SPS30;74957;48.082;17.260;2024-01-15T18:05:54;5.014;;4.457;4.284;;;;;;
84733;SPS30;74957;48.082;17.260;2024-01-15T18:10:52;5.008;;4.452;3.586;;;;;;
84733;SPS30;74957;48.082;17.260;2024-01-15T18:15:55;9.498;;8.443;7.75;;;;;;
84733;SPS30;74957;48.082;17.260;2024-01-15T18:25:53;18.457;;16.407;14.154;;;;;;
84733;SPS30;74957;48.082;17.260;2024-01-15T18:35:01;9.255;;8.227;7.534;;;;;;
84733;SPS30;74957;48.082;17.260;2024-01-15T18:35:54;9.016;;8.015;7.149;;;;;;
84733;SPS30;74957;48.082;17.260;2024-01-15T18:40:52;8.285;;7.365;6.499;;;;;;
84733;SPS30;74957;48.082;17.260;2024-01-15T18:45:51;6.942;;6.171;5.825;;;;;;
84733;SPS30;74957;48.082;17.260;2024-01-15T18:50:55;16.664;;14.813;12.734;;;;;;
84733;SPS30;74957;48.082;17.260;2024-01-15T18:55:52;9.488;;8.434;8.088;;;;;;
84733;SPS30;74957;48.082;17.260;2024-01-15T19:00:52;9.102;;8.091;7.052;;;;;;
84733;SPS30;74957;48.082;17.260;2024-01-15T19:05:53;5.078;;4.514;3.995;;;;;;
84733;SPS30;74957;48.082;17.260;2024-01-15T19:10:52;3.822;;3.398;3.225;;;;;;
84733;SPS30;74957;48.082;17.260;2024-01-15T19:15:52;3.98;;3.538;3.538;;;;;;
84733;SPS30;74957;48.082;17.260;2024-01-15T19:20:50;2.869;;2.551;2.551;;;;;;
84733;SPS30;74957;48.082;17.260;2024-01-15T19:25:51;4.554;;4.048;3.875;;;;;;
84733;SPS30;74957;48.082;17.260;2024-01-15T19:30:50;5.224;;4.644;3.778;;;;;;
84733;SPS30;74957;48.082;17.260;2024-01-15T19:35:53;5.832;;5.184;4.838;;;;;;
84733;SPS30;74957;48.082;17.260;2024-01-15T19:40:50;6.54;;5.814;5.295;;;;;;
84733;SPS30;74957;48.082;17.260;2024-01-15T19:45:56;3.659;;3.253;3.08;;;;;;
84733;SPS30;74957;48.082;17.260;2024-01-15T19:50:55;5.37;;4.774;4.428;;;;;;
84733;SPS30;74957;48.082;17.260;2024-01-15T19:55:52;5.22;;4.64;3.947;;;;;;
84733;SPS30;74957;48.082;17.260;2024-01-15T20:00:51;3.226;;2.868;2.695;;;;;;
84733;SPS30;74957;48.082;17.260;2024-01-15T20:05:53;2.576;;2.29;2.117;;;;;;
84733;SPS30;74957;48.082;17.260;2024-01-15T20:10:51;2.706;;2.406;2.406;;;;;;
84733;SPS30;74957;48.082;17.260;2024-01-15T20:15:52;3.925;;3.489;3.489;;;;;;
84733;SPS30;74957;48.082;17.260;2024-01-15T20:20:52;3.416;;3.037;2.864;;;;;;
84733;SPS30;74957;48.082;17.260;2024-01-15T20:25:51;3.493;;3.105;3.105;;;;;;
84733;SPS30;74957;48.082;17.260;2024-01-15T20:30:53;2.571;;2.286;2.286;;;;;;
84733;SPS30;74957;48.082;17.260;2024-01-15T20:35:50;3.773;;3.354;3.008;;;;;;
84733;SPS30;74957;48.082;17.260;2024-01-15T20:40:55;6.427;;5.713;5.367;;;;;;
84733;SPS30;74957;48.082;17.260;2024-01-15T20:45:53;3.547;;3.153;3.153;;;;;;
84733;SPS30;74957;48.082;17.260;2024-01-15T20:50:56;4.147;;3.687;3.514;;;;;;
84733;SPS30;74957;48.082;17.260;2024-01-15T20:55:50;3.259;;2.897;2.551;;;;;;
84733;SPS30;74957;48.082;17.260;2024-01-15T21:05:53;4.332;;3.851;3.851;;;;;;
84733;SPS30;74957;48.082;17.260;2024-01-15T21:10:52;7.083;;6.296;5.777;;;;;;
84733;SPS30;74957;48.082;17.260;2024-01-15T21:15:54;6.405;;5.694;5.175;;;;;;
84733;SPS30;74957;48.082;17.260;2024-01-15T21:20:51;3.777;;3.358;2.839;;;;;;
84733;SPS30;74957;48.082;17.260;2024-01-15T21:25:52;3.514;;3.124;2.431;;;;;;
84733;SPS30;74957;48.082;17.260;2024-01-15T21:30:56;1.498;;1.527;0.842;;;;;;
84733;SPS30;74957;48.082;17.260;2024-01-15T21:35:53;2.604;;2.315;2.142;;;;;;
84733;SPS30;74957;48.082;17.260;2024-01-15T21:40:51;4.115;;3.658;3.658;;;;;;
84733;SPS30;74957;48.082;17.260;2024-01-15T21:45:58;3.709;;3.297;3.297;;;;;;
84733;SPS30;74957;48.082;17.260;2024-01-15T21:50:58;4.923;;4.376;3.683;;;;;;
84733;SPS30;74957;48.082;17.260;2024-01-15T21:55:58;4.338;;3.856;3.683;;;;;;
84733;SPS30;74957;48.082;17.260;2024-01-15T22:00:51;4.7;;4.178;2.792;;;;;;
84733;SPS30;74957;48.082;17.260;2024-01-15T22:05:55;2.875;;2.556;2.383;;;;;;
84733;SPS30;74957;48.082;17.260;2024-01-15T22:10:53;4.699;;4.177;3.658;;;;;;
84733;SPS30;74957;48.082;17.260;2024-01-15T22:15:52;3.507;;3.118;2.599;;;;;;
84733;SPS30;74957;48.082;17.260;2024-01-15T22:20:52;5.842;;5.193;4.5;;;;;;
84733;SPS30;74957;48.082;17.260;2024-01-15T22:25:57;4.456;;3.961;3.442;;;;;;
84733;SPS30;74957;48.082;17.260;2024-01-15T22:30:51;4.224;;3.755;3.755;;;;;;
84733;SPS30;74957;48.082;17.260;2024-01-15T22:35:53;4.883;;4.341;3.995;;;;;;
84733;SPS30;74957;48.082;17.260;2024-01-15T22:40:51;3.687;;3.278;3.105;;;;;;
84733;SPS30;74957;48.082;17.260;2024-01-15T22:45:53;4.716;;4.192;4.019;;;;;;
84733;SPS30;74957;48.082;17.260;2024-01-15T22:50:50;5.577;;4.958;4.958;;;;;;
84733;SPS30;74957;48.082;17.260;2024-01-15T22:55:51;4.916;;4.37;3.851;;;;;;
84733;SPS30;74957;48.082;17.260;2024-01-15T23:01:34;4.645;;4.129;3.61;;;;;;
84733;SPS30;74957;48.082;17.260;2024-01-15T23:05:56;5.28;;4.694;4.694;;;;;;
84733;SPS30;74957;48.082;17.260;2024-01-15T23:10:50;3.259;;2.897;2.551;;;;;;
84733;SPS30;74957;48.082;17.260;2024-01-15T23:15:52;4.65;;4.134;3.441;;;;;;
84733;SPS30;74957;48.082;17.260;2024-01-15T23:20:52;4.748;;4.221;3.875;;;;;;
84733;SPS30;74957;48.082;17.260;2024-01-15T23:25:58;7.375;;6.556;6.21;;;;;;
84733;SPS30;74957;48.082;17.260;2024-01-15T23:30:51;6.238;;5.545;5.199;;;;;;
84733;SPS30;74957;48.082;17.260;2024-01-15T23:35:52;6.877;;6.113;5.247;;;;;;
84733;SPS30;74957;48.082;17.260;2024-01-15T23:40:54;5.572;;4.953;4.26;;;;;;
84733;SPS30;74957;48.082;17.260;2024-01-15T23:45:50;5.897;;5.242;4.549;;;;;;
84733;SPS30;74957;48.082;17.260;2024-01-15T23:50:57;5.376;;4.779;4.26;;;;;;
84733;SPS30;74957;48.082;17.260;2024-01-15T23:55:55;4.304;;3.826;2.96;;;;;;
